Elberfeld, Indiana
Current Conditions -  °F | °C
As of 2:54 PM on Tuesday 25 Nov 2014 (Local Time) from KEVV Reporting Station
Overcast Overcast  
Wind Chill: 33°   Ceiling: 2900
Heat Index: 39°   Visibility: 10mi
Dew Point: 28°   Wind: 8mph
Humidity: 65%   Direction: 320°NW
Pressure: 30.17"   Gusts: NA
Location:  38.16°N, 87.45°W
Report Text: KEVV 252054Z 32007KT 10SM OVC029 04/M02 A3017 RMK AO2 SLP219 T00391022 56004
Loading
Personal Weather Stations






























Interactive Weather Map New forecast layout! Learn more

10-Day Weather Forecast

Advertisements
Track Severe Weather on mobile